sensor_id;sensor_type;location;lat;lon;timestamp;P1;durP1;ratioP1;P2;durP2;ratioP2
6926;SDS011;3503;50.07605000;8.86719200;2024-02-14T00:04:00;11.50;;;5.60;;
6926;SDS011;3503;50.07605000;8.86719200;2024-02-14T00:19:03;9.33;;;5.03;;
6926;SDS011;3503;50.07605000;8.86719200;2024-02-14T00:34:06;7.63;;;3.67;;
6926;SDS011;3503;50.07605000;8.86719200;2024-02-14T00:49:09;8.60;;;4.33;;
6926;SDS011;3503;50.07605000;8.86719200;2024-02-14T01:04:12;11.10;;;7.10;;
6926;SDS011;3503;50.07605000;8.86719200;2024-02-14T01:19:16;32.33;;;15.50;;
6926;SDS011;3503;50.07605000;8.86719200;2024-02-14T01:34:20;34.43;;;21.80;;
6926;SDS011;3503;50.07605000;8.86719200;2024-02-14T01:49:23;8.47;;;5.30;;
6926;SDS011;3503;50.07605000;8.86719200;2024-02-14T02:04:31;8.63;;;4.53;;
6926;SDS011;3503;50.07605000;8.86719200;2024-02-14T02:19:34;5.20;;;2.43;;
6926;SDS011;3503;50.07605000;8.86719200;2024-02-14T02:34:37;5.67;;;2.50;;
6926;SDS011;3503;50.07605000;8.86719200;2024-02-14T02:49:40;6.27;;;2.10;;
6926;SDS011;3503;50.07605000;8.86719200;2024-02-14T03:04:45;7.60;;;2.00;;
6926;SDS011;3503;50.07605000;8.86719200;2024-02-14T03:19:48;3.97;;;1.67;;
6926;SDS011;3503;50.07605000;8.86719200;2024-02-14T03:34:53;7.50;;;1.73;;
6926;SDS011;3503;50.07605000;8.86719200;2024-02-14T03:49:56;5.57;;;1.40;;
6926;SDS011;3503;50.07605000;8.86719200;2024-02-14T04:04:59;4.10;;;0.80;;
6926;SDS011;3503;50.07605000;8.86719200;2024-02-14T04:20:02;4.73;;;2.03;;
6926;SDS011;3503;50.07605000;8.86719200;2024-02-14T04:35:06;8.83;;;1.87;;
6926;SDS011;3503;50.07605000;8.86719200;2024-02-14T04:50:10;7.63;;;1.10;;
6926;SDS011;3503;50.07605000;8.86719200;2024-02-14T05:05:16;4.50;;;1.47;;
6926;SDS011;3503;50.07605000;8.86719200;2024-02-14T05:20:19;4.43;;;1.60;;
6926;SDS011;3503;50.07605000;8.86719200;2024-02-14T05:35:22;5.90;;;2.23;;
6926;SDS011;3503;50.07605000;8.86719200;2024-02-14T05:50:26;4.80;;;1.80;;
6926;SDS011;3503;50.07605000;8.86719200;2024-02-14T06:05:29;3.80;;;2.03;;
6926;SDS011;3503;50.07605000;8.86719200;2024-02-14T06:20:31;12.83;;;3.13;;
6926;SDS011;3503;50.07605000;8.86719200;2024-02-14T06:35:34;6.47;;;2.20;;
6926;SDS011;3503;50.07605000;8.86719200;2024-02-14T06:50:37;9.80;;;2.63;;
6926;SDS011;3503;50.07605000;8.86719200;2024-02-14T07:05:40;6.67;;;2.30;;
6926;SDS011;3503;50.07605000;8.86719200;2024-02-14T07:20:43;7.57;;;2.27;;
6926;SDS011;3503;50.07605000;8.86719200;2024-02-14T07:35:46;5.00;;;2.10;;
6926;SDS011;3503;50.07605000;8.86719200;2024-02-14T07:50:49;9.97;;;2.60;;
6926;SDS011;3503;50.07605000;8.86719200;2024-02-14T08:05:52;9.47;;;2.57;;
6926;SDS011;3503;50.07605000;8.86719200;2024-02-14T08:20:55;10.80;;;2.70;;
6926;SDS011;3503;50.07605000;8.86719200;2024-02-14T08:35:58;6.13;;;2.10;;
6926;SDS011;3503;50.07605000;8.86719200;2024-02-14T08:51:01;9.30;;;2.20;;
6926;SDS011;3503;50.07605000;8.86719200;2024-02-14T09:06:05;2.97;;;1.80;;
6926;SDS011;3503;50.07605000;8.86719200;2024-02-14T09:21:08;9.07;;;2.03;;
6926;SDS011;3503;50.07605000;8.86719200;2024-02-14T09:36:11;12.00;;;3.23;;
6926;SDS011;3503;50.07605000;8.86719200;2024-02-14T09:51:14;8.23;;;3.00;;
6926;SDS011;3503;50.07605000;8.86719200;2024-02-14T10:06:16;5.77;;;2.60;;
6926;SDS011;3503;50.07605000;8.86719200;2024-02-14T10:21:21;5.00;;;2.30;;
6926;SDS011;3503;50.07605000;8.86719200;2024-02-14T10:36:25;7.70;;;1.97;;
6926;SDS011;3503;50.07605000;8.86719200;2024-02-14T10:51:29;8.27;;;2.20;;
6926;SDS011;3503;50.07605000;8.86719200;2024-02-14T11:06:33;5.03;;;2.30;;
6926;SDS011;3503;50.07605000;8.86719200;2024-02-14T11:21:46;4.10;;;2.23;;
6926;SDS011;3503;50.07605000;8.86719200;2024-02-14T11:36:50;3.00;;;1.67;;
6926;SDS011;3503;50.07605000;8.86719200;2024-02-14T11:51:54;4.20;;;2.27;;
6926;SDS011;3503;50.07605000;8.86719200;2024-02-14T12:06:57;3.30;;;1.90;;
6926;SDS011;3503;50.07605000;8.86719200;2024-02-14T12:22:00;5.30;;;2.57;;
6926;SDS011;3503;50.07605000;8.86719200;2024-02-14T12:37:03;6.20;;;2.53;;
6926;SDS011;3503;50.07605000;8.86719200;2024-02-14T12:52:09;3.93;;;2.77;;
6926;SDS011;3503;50.07605000;8.86719200;2024-02-14T13:07:12;5.33;;;2.40;;
6926;SDS011;3503;50.07605000;8.86719200;2024-02-14T13:22:15;4.80;;;2.00;;
6926;SDS011;3503;50.07605000;8.86719200;2024-02-14T13:37:18;5.70;;;2.40;;
6926;SDS011;3503;50.07605000;8.86719200;2024-02-14T13:52:22;4.70;;;2.27;;
6926;SDS011;3503;50.07605000;8.86719200;2024-02-14T14:07:25;4.70;;;2.20;;
6926;SDS011;3503;50.07605000;8.86719200;2024-02-14T14:22:28;5.43;;;2.20;;
6926;SDS011;3503;50.07605000;8.86719200;2024-02-14T14:37:31;5.30;;;2.60;;
6926;SDS011;3503;50.07605000;8.86719200;2024-02-14T14:52:34;4.00;;;2.20;;
6926;SDS011;3503;50.07605000;8.86719200;2024-02-14T15:07:37;4.33;;;2.47;;
6926;SDS011;3503;50.07605000;8.86719200;2024-02-14T15:22:40;3.57;;;1.80;;
6926;SDS011;3503;50.07605000;8.86719200;2024-02-14T15:37:43;3.30;;;1.77;;
6926;SDS011;3503;50.07605000;8.86719200;2024-02-14T15:52:46;4.40;;;2.30;;
6926;SDS011;3503;50.07605000;8.86719200;2024-02-14T16:07:49;5.40;;;2.33;;
6926;SDS011;3503;50.07605000;8.86719200;2024-02-14T16:22:52;3.30;;;1.93;;
6926;SDS011;3503;50.07605000;8.86719200;2024-02-14T16:37:55;3.70;;;1.87;;
6926;SDS011;3503;50.07605000;8.86719200;2024-02-14T16:52:58;4.53;;;1.90;;
6926;SDS011;3503;50.07605000;8.86719200;2024-02-14T17:08:01;5.03;;;1.77;;
6926;SDS011;3503;50.07605000;8.86719200;2024-02-14T17:23:04;3.43;;;1.50;;
6926;SDS011;3503;50.07605000;8.86719200;2024-02-14T17:38:07;3.20;;;1.93;;
6926;SDS011;3503;50.07605000;8.86719200;2024-02-14T17:53:10;4.73;;;3.07;;
6926;SDS011;3503;50.07605000;8.86719200;2024-02-14T18:08:13;3.53;;;2.80;;
6926;SDS011;3503;50.07605000;8.86719200;2024-02-14T18:23:16;3.60;;;2.10;;
6926;SDS011;3503;50.07605000;8.86719200;2024-02-14T18:38:19;4.20;;;2.60;;
6926;SDS011;3503;50.07605000;8.86719200;2024-02-14T18:53:30;8.77;;;3.90;;
6926;SDS011;3503;50.07605000;8.86719200;2024-02-14T19:08:33;4.77;;;1.60;;
6926;SDS011;3503;50.07605000;8.86719200;2024-02-14T19:23:36;3.73;;;1.90;;
6926;SDS011;3503;50.07605000;8.86719200;2024-02-14T19:38:40;4.57;;;2.27;;
6926;SDS011;3503;50.07605000;8.86719200;2024-02-14T19:53:43;5.17;;;2.17;;
6926;SDS011;3503;50.07605000;8.86719200;2024-02-14T20:08:46;2.87;;;2.10;;
6926;SDS011;3503;50.07605000;8.86719200;2024-02-14T20:23:49;7.63;;;2.60;;
6926;SDS011;3503;50.07605000;8.86719200;2024-02-14T20:38:55;8.43;;;2.20;;
6926;SDS011;3503;50.07605000;8.86719200;2024-02-14T20:53:58;4.90;;;3.10;;
6926;SDS011;3503;50.07605000;8.86719200;2024-02-14T21:09:01;5.60;;;3.37;;
6926;SDS011;3503;50.07605000;8.86719200;2024-02-14T21:24:04;5.40;;;2.80;;
6926;SDS011;3503;50.07605000;8.86719200;2024-02-14T21:39:08;9.70;;;4.70;;
6926;SDS011;3503;50.07605000;8.86719200;2024-02-14T21:54:12;9.60;;;4.37;;
6926;SDS011;3503;50.07605000;8.86719200;2024-02-14T22:09:15;5.40;;;3.70;;
6926;SDS011;3503;50.07605000;8.86719200;2024-02-14T22:24:18;6.70;;;3.70;;
6926;SDS011;3503;50.07605000;8.86719200;2024-02-14T22:39:22;5.93;;;4.20;;
6926;SDS011;3503;50.07605000;8.86719200;2024-02-14T22:54:24;10.20;;;4.80;;
6926;SDS011;3503;50.07605000;8.86719200;2024-02-14T23:09:27;7.03;;;4.57;;
6926;SDS011;3503;50.07605000;8.86719200;2024-02-14T23:24:30;10.37;;;4.97;;
6926;SDS011;3503;50.07605000;8.86719200;2024-02-14T23:39:34;6.40;;;4.73;;
6926;SDS011;3503;50.07605000;8.86719200;2024-02-14T23:54:37;6.13;;;4.43;;
